sensor_id;sensor_type;location;lat;lon;timestamp;temperature;humidity
5775;DHT22;2913;51.120;6.772;2023-05-07T00:01:11;16.10;99.90
5775;DHT22;2913;51.120;6.772;2023-05-07T00:03:37;16.10;99.90
5775;DHT22;2913;51.120;6.772;2023-05-07T00:06:03;16.10;99.90
5775;DHT22;2913;51.120;6.772;2023-05-07T00:08:29;16.00;99.90
5775;DHT22;2913;51.120;6.772;2023-05-07T00:10:54;16.00;99.90
5775;DHT22;2913;51.120;6.772;2023-05-07T00:13:20;16.10;99.90
5775;DHT22;2913;51.120;6.772;2023-05-07T00:15:45;15.90;99.90
5775;DHT22;2913;51.120;6.772;2023-05-07T00:18:11;16.00;99.90
5775;DHT22;2913;51.120;6.772;2023-05-07T00:20:37;15.90;99.90
5775;DHT22;2913;51.120;6.772;2023-05-07T00:23:05;15.90;99.90
5775;DHT22;2913;51.120;6.772;2023-05-07T00:25:30;15.80;99.90
5775;DHT22;2913;51.120;6.772;2023-05-07T00:27:56;15.80;99.90
5775;DHT22;2913;51.120;6.772;2023-05-07T00:30:32;15.80;99.90
5775;DHT22;2913;51.120;6.772;2023-05-07T00:32:58;15.80;99.90
5775;DHT22;2913;51.120;6.772;2023-05-07T00:35:26;15.70;99.90
5775;DHT22;2913;51.120;6.772;2023-05-07T00:37:51;15.80;99.90
5775;DHT22;2913;51.120;6.772;2023-05-07T00:40:17;15.80;99.90
5775;DHT22;2913;51.120;6.772;2023-05-07T00:42:45;15.70;99.90
5775;DHT22;2913;51.120;6.772;2023-05-07T00:45:13;15.70;99.90
5775;DHT22;2913;51.120;6.772;2023-05-07T00:47:39;15.60;99.90
5775;DHT22;2913;51.120;6.772;2023-05-07T00:50:05;15.70;99.90
5775;DHT22;2913;51.120;6.772;2023-05-07T00:52:31;15.60;99.90
5775;DHT22;2913;51.120;6.772;2023-05-07T00:54:57;15.70;99.90
5775;DHT22;2913;51.120;6.772;2023-05-07T00:57:24;15.70;99.90
5775;DHT22;2913;51.120;6.772;2023-05-07T00:59:52;15.70;99.90
5775;DHT22;2913;51.120;6.772;2023-05-07T01:02:17;15.70;99.90
5775;DHT22;2913;51.120;6.772;2023-05-07T01:04:43;15.70;99.90
5775;DHT22;2913;51.120;6.772;2023-05-07T01:07:13;15.70;99.90
5775;DHT22;2913;51.120;6.772;2023-05-07T01:09:41;15.70;99.90
5775;DHT22;2913;51.120;6.772;2023-05-07T01:12:08;15.70;99.90
5775;DHT22;2913;51.120;6.772;2023-05-07T01:14:34;15.70;99.90
5775;DHT22;2913;51.120;6.772;2023-05-07T01:17:02;15.70;99.90
5775;DHT22;2913;51.120;6.772;2023-05-07T01:19:31;15.70;99.90
5775;DHT22;2913;51.120;6.772;2023-05-07T01:22:02;15.70;99.90
5775;DHT22;2913;51.120;6.772;2023-05-07T01:24:31;15.70;99.90
5775;DHT22;2913;51.120;6.772;2023-05-07T01:26:59;15.70;99.90
5775;DHT22;2913;51.120;6.772;2023-05-07T01:29:27;15.60;99.90
5775;DHT22;2913;51.120;6.772;2023-05-07T01:34:20;15.60;99.90
5775;DHT22;2913;51.120;6.772;2023-05-07T01:36:47;15.50;99.90
5775;DHT22;2913;51.120;6.772;2023-05-07T01:39:16;15.60;99.90
5775;DHT22;2913;51.120;6.772;2023-05-07T01:41:43;15.60;99.90
5775;DHT22;2913;51.120;6.772;2023-05-07T01:44:10;15.60;99.90
5775;DHT22;2913;51.120;6.772;2023-05-07T01:46:37;15.60;99.90
5775;DHT22;2913;51.120;6.772;2023-05-07T01:49:05;15.60;99.90
5775;DHT22;2913;51.120;6.772;2023-05-07T01:51:34;15.60;99.90
5775;DHT22;2913;51.120;6.772;2023-05-07T01:53:59;15.60;99.90
5775;DHT22;2913;51.120;6.772;2023-05-07T01:56:25;15.50;99.90
5775;DHT22;2913;51.120;6.772;2023-05-07T01:58:52;15.50;99.90
5775;DHT22;2913;51.120;6.772;2023-05-07T02:01:20;15.50;99.90
5775;DHT22;2913;51.120;6.772;2023-05-07T02:03:48;15.20;99.90
5775;DHT22;2913;51.120;6.772;2023-05-07T02:06:13;15.30;99.90
5775;DHT22;2913;51.120;6.772;2023-05-07T02:11:07;15.30;99.90
5775;DHT22;2913;51.120;6.772;2023-05-07T02:13:33;15.40;99.90
5775;DHT22;2913;51.120;6.772;2023-05-07T02:16:04;15.40;99.90
5775;DHT22;2913;51.120;6.772;2023-05-07T02:18:32;15.30;99.90
5775;DHT22;2913;51.120;6.772;2023-05-07T02:21:03;15.40;99.90
5775;DHT22;2913;51.120;6.772;2023-05-07T02:23:29;15.30;99.90
5775;DHT22;2913;51.120;6.772;2023-05-07T02:25:54;15.30;99.90
5775;DHT22;2913;51.120;6.772;2023-05-07T02:28:20;15.30;99.90
5775;DHT22;2913;51.120;6.772;2023-05-07T02:30:45;15.30;99.90
5775;DHT22;2913;51.120;6.772;2023-05-07T02:33:13;15.30;99.90
5775;DHT22;2913;51.120;6.772;2023-05-07T02:35:39;15.20;99.90
5775;DHT22;2913;51.120;6.772;2023-05-07T02:38:05;15.20;99.90
5775;DHT22;2913;51.120;6.772;2023-05-07T02:40:31;15.10;99.90
5775;DHT22;2913;51.120;6.772;2023-05-07T02:42:59;15.00;99.90
5775;DHT22;2913;51.120;6.772;2023-05-07T02:45:27;15.00;99.90
5775;DHT22;2913;51.120;6.772;2023-05-07T02:47:53;15.10;99.90
5775;DHT22;2913;51.120;6.772;2023-05-07T02:50:21;15.00;99.90
5775;DHT22;2913;51.120;6.772;2023-05-07T02:52:49;15.00;99.90
5775;DHT22;2913;51.120;6.772;2023-05-07T02:55:14;14.90;99.90
5775;DHT22;2913;51.120;6.772;2023-05-07T02:57:42;14.90;99.90
5775;DHT22;2913;51.120;6.772;2023-05-07T03:00:13;14.80;99.90
5775;DHT22;2913;51.120;6.772;2023-05-07T03:02:41;14.80;99.90
5775;DHT22;2913;51.120;6.772;2023-05-07T03:05:07;14.80;99.90
5775;DHT22;2913;51.120;6.772;2023-05-07T03:07:35;14.80;99.90
5775;DHT22;2913;51.120;6.772;2023-05-07T03:10:00;14.80;99.90
5775;DHT22;2913;51.120;6.772;2023-05-07T03:12:26;14.80;99.90
5775;DHT22;2913;51.120;6.772;2023-05-07T03:14:52;14.70;99.90
5775;DHT22;2913;51.120;6.772;2023-05-07T03:17:17;14.80;99.90
5775;DHT22;2913;51.120;6.772;2023-05-07T03:19:45;14.70;99.90
5775;DHT22;2913;51.120;6.772;2023-05-07T03:22:11;14.80;99.90
5775;DHT22;2913;51.120;6.772;2023-05-07T03:24:36;14.70;99.90
5775;DHT22;2913;51.120;6.772;2023-05-07T03:27:04;14.70;99.90
5775;DHT22;2913;51.120;6.772;2023-05-07T03:29:30;14.70;99.90
5775;DHT22;2913;51.120;6.772;2023-05-07T03:31:55;14.70;99.90
5775;DHT22;2913;51.120;6.772;2023-05-07T03:34:23;14.70;99.90
5775;DHT22;2913;51.120;6.772;2023-05-07T03:36:49;14.70;99.90
5775;DHT22;2913;51.120;6.772;2023-05-07T03:39:15;14.70;99.90
5775;DHT22;2913;51.120;6.772;2023-05-07T03:41:40;14.70;99.90
5775;DHT22;2913;51.120;6.772;2023-05-07T03:44:06;14.70;99.90
5775;DHT22;2913;51.120;6.772;2023-05-07T03:46:33;14.70;99.90
5775;DHT22;2913;51.120;6.772;2023-05-07T03:49:02;14.70;99.90
5775;DHT22;2913;51.120;6.772;2023-05-07T03:51:27;14.70;99.90
5775;DHT22;2913;51.120;6.772;2023-05-07T03:53:55;14.70;99.90
5775;DHT22;2913;51.120;6.772;2023-05-07T03:56:23;14.70;99.90
5775;DHT22;2913;51.120;6.772;2023-05-07T04:01:17;14.70;99.90
5775;DHT22;2913;51.120;6.772;2023-05-07T04:03:43;14.70;99.90
5775;DHT22;2913;51.120;6.772;2023-05-07T04:06:09;14.70;99.90
5775;DHT22;2913;51.120;6.772;2023-05-07T04:11:00;14.70;99.90
5775;DHT22;2913;51.120;6.772;2023-05-07T04:13:26;14.70;99.90
5775;DHT22;2913;51.120;6.772;2023-05-07T04:15:53;14.60;99.90
5775;DHT22;2913;51.120;6.772;2023-05-07T04:18:19;14.70;99.90
5775;DHT22;2913;51.120;6.772;2023-05-07T04:23:11;14.80;99.90
5775;DHT22;2913;51.120;6.772;2023-05-07T04:25:39;14.90;99.90
5775;DHT22;2913;51.120;6.772;2023-05-07T04:28:04;14.90;99.90
5775;DHT22;2913;51.120;6.772;2023-05-07T04:30:31;15.00;99.90
5775;DHT22;2913;51.120;6.772;2023-05-07T04:32:56;15.10;99.90
5775;DHT22;2913;51.120;6.772;2023-05-07T04:37:52;15.20;99.90
5775;DHT22;2913;51.120;6.772;2023-05-07T04:40:20;15.10;99.90
5775;DHT22;2913;51.120;6.772;2023-05-07T04:42:46;15.10;99.90
5775;DHT22;2913;51.120;6.772;2023-05-07T04:45:12;15.10;99.90
5775;DHT22;2913;51.120;6.772;2023-05-07T04:47:38;15.00;99.90
5775;DHT22;2913;51.120;6.772;2023-05-07T04:50:05;14.90;99.90
5775;DHT22;2913;51.120;6.772;2023-05-07T04:52:30;14.90;99.90
5775;DHT22;2913;51.120;6.772;2023-05-07T04:57:24;15.00;99.90
5775;DHT22;2913;51.120;6.772;2023-05-07T04:59:49;15.20;99.90
5775;DHT22;2913;51.120;6.772;2023-05-07T05:02:17;15.20;99.90
5775;DHT22;2913;51.120;6.772;2023-05-07T05:04:45;15.20;99.90
5775;DHT22;2913;51.120;6.772;2023-05-07T05:07:10;15.20;99.90
5775;DHT22;2913;51.120;6.772;2023-05-07T05:09:38;15.10;99.90
5775;DHT22;2913;51.120;6.772;2023-05-07T05:12:06;15.20;99.90
5775;DHT22;2913;51.120;6.772;2023-05-07T05:14:32;15.10;99.90
5775;DHT22;2913;51.120;6.772;2023-05-07T05:16:58;15.10;99.90
5775;DHT22;2913;51.120;6.772;2023-05-07T05:19:26;15.10;99.90
5775;DHT22;2913;51.120;6.772;2023-05-07T05:21:52;15.20;99.90
5775;DHT22;2913;51.120;6.772;2023-05-07T05:24:17;15.20;99.90
5775;DHT22;2913;51.120;6.772;2023-05-07T05:26:43;15.20;99.90
5775;DHT22;2913;51.120;6.772;2023-05-07T05:29:09;15.20;99.90
5775;DHT22;2913;51.120;6.772;2023-05-07T05:31:35;15.30;99.90
5775;DHT22;2913;51.120;6.772;2023-05-07T05:34:02;15.30;99.90
5775;DHT22;2913;51.120;6.772;2023-05-07T05:41:24;15.30;99.90
5775;DHT22;2913;51.120;6.772;2023-05-07T05:43:52;15.40;99.90
5775;DHT22;2913;51.120;6.772;2023-05-07T05:46:18;15.40;99.90
5775;DHT22;2913;51.120;6.772;2023-05-07T05:48:46;15.50;99.90
5775;DHT22;2913;51.120;6.772;2023-05-07T05:51:13;15.50;99.90
5775;DHT22;2913;51.120;6.772;2023-05-07T05:53:41;15.50;99.90
5775;DHT22;2913;51.120;6.772;2023-05-07T05:56:07;15.50;99.90
5775;DHT22;2913;51.120;6.772;2023-05-07T05:58:33;15.60;99.90
5775;DHT22;2913;51.120;6.772;2023-05-07T06:00:58;15.60;99.90
5775;DHT22;2913;51.120;6.772;2023-05-07T06:03:24;15.60;99.90
5775;DHT22;2913;51.120;6.772;2023-05-07T06:05:49;15.70;99.90
5775;DHT22;2913;51.120;6.772;2023-05-07T06:08:17;15.70;99.90
5775;DHT22;2913;51.120;6.772;2023-05-07T06:10:43;15.70;99.90
5775;DHT22;2913;51.120;6.772;2023-05-07T06:13:12;15.80;99.90
5775;DHT22;2913;51.120;6.772;2023-05-07T06:15:39;15.80;99.90
5775;DHT22;2913;51.120;6.772;2023-05-07T06:20:33;16.00;99.90
5775;DHT22;2913;51.120;6.772;2023-05-07T06:22:59;16.00;99.90
5775;DHT22;2913;51.120;6.772;2023-05-07T06:25:25;16.00;99.90
5775;DHT22;2913;51.120;6.772;2023-05-07T06:27:50;16.10;99.90
5775;DHT22;2913;51.120;6.772;2023-05-07T06:30:19;16.20;99.90
5775;DHT22;2913;51.120;6.772;2023-05-07T06:35:10;16.50;99.90
5775;DHT22;2913;51.120;6.772;2023-05-07T06:37:36;16.60;99.90
5775;DHT22;2913;51.120;6.772;2023-05-07T06:40:05;16.80;99.90
5775;DHT22;2913;51.120;6.772;2023-05-07T06:42:31;16.80;99.90
5775;DHT22;2913;51.120;6.772;2023-05-07T06:44:56;16.80;99.90
5775;DHT22;2913;51.120;6.772;2023-05-07T06:47:22;17.00;99.90
5775;DHT22;2913;51.120;6.772;2023-05-07T06:49:50;17.00;99.90
5775;DHT22;2913;51.120;6.772;2023-05-07T06:52:18;17.10;99.90
5775;DHT22;2913;51.120;6.772;2023-05-07T06:54:43;17.10;99.90
5775;DHT22;2913;51.120;6.772;2023-05-07T06:57:09;17.40;99.90
5775;DHT22;2913;51.120;6.772;2023-05-07T06:59:37;17.40;99.90
5775;DHT22;2913;51.120;6.772;2023-05-07T07:02:05;17.60;99.90
5775;DHT22;2913;51.120;6.772;2023-05-07T07:04:31;17.90;99.90
5775;DHT22;2913;51.120;6.772;2023-05-07T07:06:56;18.20;99.90
5775;DHT22;2913;51.120;6.772;2023-05-07T07:09:24;18.40;99.90
5775;DHT22;2913;51.120;6.772;2023-05-07T07:11:50;18.30;99.90
5775;DHT22;2913;51.120;6.772;2023-05-07T07:14:18;18.30;99.90
5775;DHT22;2913;51.120;6.772;2023-05-07T07:16:43;18.40;99.90
5775;DHT22;2913;51.120;6.772;2023-05-07T07:19:11;18.60;99.90
5775;DHT22;2913;51.120;6.772;2023-05-07T07:21:37;18.80;99.90
5775;DHT22;2913;51.120;6.772;2023-05-07T07:24:03;19.00;99.90
5775;DHT22;2913;51.120;6.772;2023-05-07T07:26:31;19.20;99.90
5775;DHT22;2913;51.120;6.772;2023-05-07T07:28:56;19.30;99.90
5775;DHT22;2913;51.120;6.772;2023-05-07T07:31:22;19.60;99.90
5775;DHT22;2913;51.120;6.772;2023-05-07T07:33:48;19.30;99.90
5775;DHT22;2913;51.120;6.772;2023-05-07T07:36:15;19.50;99.90
5775;DHT22;2913;51.120;6.772;2023-05-07T07:38:43;19.40;99.90
5775;DHT22;2913;51.120;6.772;2023-05-07T07:41:09;19.60;99.90
5775;DHT22;2913;51.120;6.772;2023-05-07T07:43:37;19.60;99.90
5775;DHT22;2913;51.120;6.772;2023-05-07T07:46:02;19.80;99.90
5775;DHT22;2913;51.120;6.772;2023-05-07T07:48:28;19.70;99.90
5775;DHT22;2913;51.120;6.772;2023-05-07T07:50:53;19.70;99.90
5775;DHT22;2913;51.120;6.772;2023-05-07T07:53:19;19.80;99.90
5775;DHT22;2913;51.120;6.772;2023-05-07T07:55:45;20.00;99.90
5775;DHT22;2913;51.120;6.772;2023-05-07T07:58:11;20.30;99.90
5775;DHT22;2913;51.120;6.772;2023-05-07T08:00:41;20.30;99.90
5775;DHT22;2913;51.120;6.772;2023-05-07T08:03:09;20.60;99.90
5775;DHT22;2913;51.120;6.772;2023-05-07T08:05:37;20.70;99.90
5775;DHT22;2913;51.120;6.772;2023-05-07T08:08:04;20.70;99.90
5775;DHT22;2913;51.120;6.772;2023-05-07T08:10:32;20.70;99.90
5775;DHT22;2913;51.120;6.772;2023-05-07T08:13:00;20.70;99.90
5775;DHT22;2913;51.120;6.772;2023-05-07T08:15:28;20.90;99.90
5775;DHT22;2913;51.120;6.772;2023-05-07T08:17:56;20.90;99.90
5775;DHT22;2913;51.120;6.772;2023-05-07T08:20:28;21.10;99.90
5775;DHT22;2913;51.120;6.772;2023-05-07T08:22:54;21.00;99.90
5775;DHT22;2913;51.120;6.772;2023-05-07T08:25:19;21.30;99.90
5775;DHT22;2913;51.120;6.772;2023-05-07T08:27:45;21.20;99.90
5775;DHT22;2913;51.120;6.772;2023-05-07T08:30:16;21.40;99.90
5775;DHT22;2913;51.120;6.772;2023-05-07T08:32:44;21.50;99.90
5775;DHT22;2913;51.120;6.772;2023-05-07T08:35:09;21.60;99.90
5775;DHT22;2913;51.120;6.772;2023-05-07T08:37:35;21.40;99.90
5775;DHT22;2913;51.120;6.772;2023-05-07T08:40:03;21.60;99.90
5775;DHT22;2913;51.120;6.772;2023-05-07T08:42:29;21.50;99.90
5775;DHT22;2913;51.120;6.772;2023-05-07T08:44:59;21.60;99.90
5775;DHT22;2913;51.120;6.772;2023-05-07T08:47:32;21.50;99.90
5775;DHT22;2913;51.120;6.772;2023-05-07T08:50:00;21.50;99.90
5775;DHT22;2913;51.120;6.772;2023-05-07T08:52:27;21.60;99.90
5775;DHT22;2913;51.120;6.772;2023-05-07T08:54:52;21.60;99.90
5775;DHT22;2913;51.120;6.772;2023-05-07T08:57:18;21.70;99.90
5775;DHT22;2913;51.120;6.772;2023-05-07T08:59:46;21.60;99.90
5775;DHT22;2913;51.120;6.772;2023-05-07T09:02:14;21.60;99.90
5775;DHT22;2913;51.120;6.772;2023-05-07T09:04:41;21.70;99.90
5775;DHT22;2913;51.120;6.772;2023-05-07T09:07:07;21.60;99.90
5775;DHT22;2913;51.120;6.772;2023-05-07T09:09:35;21.80;99.90
5775;DHT22;2913;51.120;6.772;2023-05-07T09:12:00;21.90;99.90
5775;DHT22;2913;51.120;6.772;2023-05-07T09:14:27;21.90;99.90
5775;DHT22;2913;51.120;6.772;2023-05-07T09:16:53;22.20;99.90
5775;DHT22;2913;51.120;6.772;2023-05-07T09:19:28;22.40;99.90
5775;DHT22;2913;51.120;6.772;2023-05-07T09:22:03;22.40;99.90
5775;DHT22;2913;51.120;6.772;2023-05-07T09:24:30;22.00;99.90
5775;DHT22;2913;51.120;6.772;2023-05-07T09:27:00;22.00;99.90
5775;DHT22;2913;51.120;6.772;2023-05-07T09:29:27;22.20;99.90
5775;DHT22;2913;51.120;6.772;2023-05-07T09:31:54;22.50;99.90
5775;DHT22;2913;51.120;6.772;2023-05-07T09:34:23;22.90;99.90
5775;DHT22;2913;51.120;6.772;2023-05-07T09:36:51;22.90;99.90
5775;DHT22;2913;51.120;6.772;2023-05-07T09:39:17;23.10;99.90
5775;DHT22;2913;51.120;6.772;2023-05-07T09:41:46;23.20;99.90
5775;DHT22;2913;51.120;6.772;2023-05-07T09:44:13;23.30;99.90
5775;DHT22;2913;51.120;6.772;2023-05-07T09:46:43;23.10;99.90
5775;DHT22;2913;51.120;6.772;2023-05-07T09:49:18;23.40;99.90
5775;DHT22;2913;51.120;6.772;2023-05-07T09:51:50;23.50;99.90
5775;DHT22;2913;51.120;6.772;2023-05-07T09:54:19;23.50;99.90
5775;DHT22;2913;51.120;6.772;2023-05-07T09:56:45;23.80;99.90
5775;DHT22;2913;51.120;6.772;2023-05-07T09:59:13;23.80;99.90
5775;DHT22;2913;51.120;6.772;2023-05-07T10:01:41;23.80;99.90
5775;DHT22;2913;51.120;6.772;2023-05-07T10:04:10;23.80;99.90
5775;DHT22;2913;51.120;6.772;2023-05-07T10:06:38;24.00;99.90
5775;DHT22;2913;51.120;6.772;2023-05-07T10:09:07;23.60;99.90
5775;DHT22;2913;51.120;6.772;2023-05-07T10:11:33;23.70;99.90
5775;DHT22;2913;51.120;6.772;2023-05-07T10:14:00;23.80;99.90
5775;DHT22;2913;51.120;6.772;2023-05-07T10:16:31;23.80;99.90
5775;DHT22;2913;51.120;6.772;2023-05-07T10:18:58;23.50;99.90
5775;DHT22;2913;51.120;6.772;2023-05-07T10:21:27;23.60;99.90
5775;DHT22;2913;51.120;6.772;2023-05-07T10:24:06;23.30;99.90
5775;DHT22;2913;51.120;6.772;2023-05-07T10:26:42;23.40;99.90
5775;DHT22;2913;51.120;6.772;2023-05-07T10:31:59;24.00;99.00
5775;DHT22;2913;51.120;6.772;2023-05-07T10:34:39;24.10;99.40
5775;DHT22;2913;51.120;6.772;2023-05-07T10:37:09;23.80;98.10
5775;DHT22;2913;51.120;6.772;2023-05-07T10:39:35;23.90;96.70
5775;DHT22;2913;51.120;6.772;2023-05-07T10:42:11;24.20;96.50
5775;DHT22;2913;51.120;6.772;2023-05-07T10:44:37;24.10;92.90
5775;DHT22;2913;51.120;6.772;2023-05-07T10:47:15;24.30;93.20
5775;DHT22;2913;51.120;6.772;2023-05-07T10:52:23;23.90;90.30
5775;DHT22;2913;51.120;6.772;2023-05-07T10:57:45;23.60;91.50
5775;DHT22;2913;51.120;6.772;2023-05-07T11:05:30;24.00;91.70
5775;DHT22;2913;51.120;6.772;2023-05-07T11:08:01;24.00;92.20
5775;DHT22;2913;51.120;6.772;2023-05-07T11:13:40;24.40;91.80
5775;DHT22;2913;51.120;6.772;2023-05-07T11:16:20;24.30;91.00
5775;DHT22;2913;51.120;6.772;2023-05-07T11:18:54;24.30;91.10
5775;DHT22;2913;51.120;6.772;2023-05-07T11:21:38;24.50;91.30
5775;DHT22;2913;51.120;6.772;2023-05-07T11:24:06;24.40;91.50
5775;DHT22;2913;51.120;6.772;2023-05-07T11:26:48;24.40;91.50
5775;DHT22;2913;51.120;6.772;2023-05-07T11:29:20;24.80;89.80
5775;DHT22;2913;51.120;6.772;2023-05-07T11:31:52;24.80;90.20
5775;DHT22;2913;51.120;6.772;2023-05-07T11:34:26;24.60;88.70
5775;DHT22;2913;51.120;6.772;2023-05-07T11:36:56;24.50;89.50
5775;DHT22;2913;51.120;6.772;2023-05-07T11:39:30;24.90;89.40
5775;DHT22;2913;51.120;6.772;2023-05-07T11:42:03;25.00;89.50
5775;DHT22;2913;51.120;6.772;2023-05-07T11:44:42;25.20;90.00
5775;DHT22;2913;51.120;6.772;2023-05-07T11:47:11;25.10;87.10
5775;DHT22;2913;51.120;6.772;2023-05-07T11:49:37;25.20;89.30
5775;DHT22;2913;51.120;6.772;2023-05-07T11:52:03;24.80;89.20
5775;DHT22;2913;51.120;6.772;2023-05-07T11:54:35;24.80;90.00
5775;DHT22;2913;51.120;6.772;2023-05-07T11:57:02;24.90;87.90
5775;DHT22;2913;51.120;6.772;2023-05-07T11:59:30;24.70;88.20
5775;DHT22;2913;51.120;6.772;2023-05-07T12:01:58;24.90;89.80
5775;DHT22;2913;51.120;6.772;2023-05-07T12:04:24;24.90;86.60
5775;DHT22;2913;51.120;6.772;2023-05-07T12:06:54;25.00;90.20
5775;DHT22;2913;51.120;6.772;2023-05-07T12:09:21;25.20;89.70
5775;DHT22;2913;51.120;6.772;2023-05-07T12:11:49;25.00;88.30
5775;DHT22;2913;51.120;6.772;2023-05-07T12:14:16;24.90;87.90
5775;DHT22;2913;51.120;6.772;2023-05-07T12:16:43;24.90;86.60
5775;DHT22;2913;51.120;6.772;2023-05-07T12:19:11;25.00;87.20
5775;DHT22;2913;51.120;6.772;2023-05-07T12:21:42;25.10;83.70
5775;DHT22;2913;51.120;6.772;2023-05-07T12:24:08;25.10;83.60
5775;DHT22;2913;51.120;6.772;2023-05-07T12:26:40;25.20;85.30
5775;DHT22;2913;51.120;6.772;2023-05-07T12:29:08;25.10;85.30
5775;DHT22;2913;51.120;6.772;2023-05-07T12:31:34;25.00;86.50
5775;DHT22;2913;51.120;6.772;2023-05-07T12:34:00;24.70;86.60
5775;DHT22;2913;51.120;6.772;2023-05-07T12:36:36;24.90;88.40
5775;DHT22;2913;51.120;6.772;2023-05-07T12:39:05;24.90;89.90
5775;DHT22;2913;51.120;6.772;2023-05-07T12:41:36;25.10;90.10
5775;DHT22;2913;51.120;6.772;2023-05-07T12:44:22;25.20;90.20
5775;DHT22;2913;51.120;6.772;2023-05-07T12:46:52;24.80;87.60
5775;DHT22;2913;51.120;6.772;2023-05-07T12:49:20;24.80;88.60
5775;DHT22;2913;51.120;6.772;2023-05-07T12:51:49;24.60;89.80
5775;DHT22;2913;51.120;6.772;2023-05-07T12:57:08;24.70;89.30
5775;DHT22;2913;51.120;6.772;2023-05-07T12:59:35;24.70;89.90
5775;DHT22;2913;51.120;6.772;2023-05-07T13:02:04;24.50;90.20
5775;DHT22;2913;51.120;6.772;2023-05-07T13:04:30;24.50;89.70
5775;DHT22;2913;51.120;6.772;2023-05-07T13:06:55;24.50;90.20
5775;DHT22;2913;51.120;6.772;2023-05-07T13:09:21;24.60;90.20
5775;DHT22;2913;51.120;6.772;2023-05-07T13:11:49;24.70;91.20
5775;DHT22;2913;51.120;6.772;2023-05-07T13:14:15;24.70;91.50
5775;DHT22;2913;51.120;6.772;2023-05-07T13:16:41;24.70;91.20
5775;DHT22;2913;51.120;6.772;2023-05-07T13:19:06;24.70;91.10
5775;DHT22;2913;51.120;6.772;2023-05-07T13:21:34;24.70;91.90
5775;DHT22;2913;51.120;6.772;2023-05-07T13:24:00;24.60;91.60
5775;DHT22;2913;51.120;6.772;2023-05-07T13:26:26;24.60;91.80
5775;DHT22;2913;51.120;6.772;2023-05-07T13:28:54;24.60;91.70
5775;DHT22;2913;51.120;6.772;2023-05-07T13:31:24;24.50;91.50
5775;DHT22;2913;51.120;6.772;2023-05-07T13:33:50;24.50;92.00
5775;DHT22;2913;51.120;6.772;2023-05-07T13:36:18;24.40;91.60
5775;DHT22;2913;51.120;6.772;2023-05-07T13:38:46;24.40;92.10
5775;DHT22;2913;51.120;6.772;2023-05-07T13:41:11;24.30;92.60
5775;DHT22;2913;51.120;6.772;2023-05-07T13:43:38;24.30;93.50
5775;DHT22;2913;51.120;6.772;2023-05-07T13:46:06;24.20;93.80
5775;DHT22;2913;51.120;6.772;2023-05-07T13:48:36;24.20;93.60
5775;DHT22;2913;51.120;6.772;2023-05-07T13:51:02;24.10;93.90
5775;DHT22;2913;51.120;6.772;2023-05-07T13:53:27;24.10;95.10
5775;DHT22;2913;51.120;6.772;2023-05-07T13:55:53;24.00;94.50
5775;DHT22;2913;51.120;6.772;2023-05-07T13:58:21;24.00;95.60
5775;DHT22;2913;51.120;6.772;2023-05-07T14:00:46;23.90;96.30
5775;DHT22;2913;51.120;6.772;2023-05-07T14:03:14;23.90;97.10
5775;DHT22;2913;51.120;6.772;2023-05-07T14:05:42;23.70;97.00
5775;DHT22;2913;51.120;6.772;2023-05-07T14:08:08;23.40;99.90
5775;DHT22;2913;51.120;6.772;2023-05-07T14:10:36;22.50;99.90
5775;DHT22;2913;51.120;6.772;2023-05-07T14:13:02;22.50;99.90
5775;DHT22;2913;51.120;6.772;2023-05-07T14:15:27;22.20;99.90
5775;DHT22;2913;51.120;6.772;2023-05-07T14:17:58;21.80;99.90
5775;DHT22;2913;51.120;6.772;2023-05-07T14:20:26;21.30;99.90
5775;DHT22;2913;51.120;6.772;2023-05-07T14:22:52;21.40;99.90
5775;DHT22;2913;51.120;6.772;2023-05-07T14:25:17;21.30;99.90
5775;DHT22;2913;51.120;6.772;2023-05-07T14:27:48;21.30;99.90
5775;DHT22;2913;51.120;6.772;2023-05-07T14:30:13;20.90;99.90
5775;DHT22;2913;51.120;6.772;2023-05-07T14:32:41;21.00;99.90
5775;DHT22;2913;51.120;6.772;2023-05-07T14:35:07;21.10;99.90
5775;DHT22;2913;51.120;6.772;2023-05-07T14:37:33;21.00;99.90
5775;DHT22;2913;51.120;6.772;2023-05-07T14:42:27;21.00;99.90
5775;DHT22;2913;51.120;6.772;2023-05-07T14:44:53;21.20;99.90
5775;DHT22;2913;51.120;6.772;2023-05-07T14:47:18;21.00;99.90
5775;DHT22;2913;51.120;6.772;2023-05-07T14:49:46;21.00;99.90
5775;DHT22;2913;51.120;6.772;2023-05-07T14:52:12;20.70;99.90
5775;DHT22;2913;51.120;6.772;2023-05-07T14:54:38;20.30;99.90
5775;DHT22;2913;51.120;6.772;2023-05-07T14:57:05;20.60;99.90
5775;DHT22;2913;51.120;6.772;2023-05-07T14:59:33;20.50;99.90
5775;DHT22;2913;51.120;6.772;2023-05-07T15:01:59;20.40;99.90
5775;DHT22;2913;51.120;6.772;2023-05-07T15:04:27;20.60;99.90
5775;DHT22;2913;51.120;6.772;2023-05-07T15:06:55;20.80;99.90
5775;DHT22;2913;51.120;6.772;2023-05-07T15:09:21;20.90;99.90
5775;DHT22;2913;51.120;6.772;2023-05-07T15:11:49;20.60;99.90
5775;DHT22;2913;51.120;6.772;2023-05-07T15:14:15;20.60;99.90
5775;DHT22;2913;51.120;6.772;2023-05-07T15:16:43;20.60;99.90
5775;DHT22;2913;51.120;6.772;2023-05-07T15:19:09;20.50;99.90
5775;DHT22;2913;51.120;6.772;2023-05-07T15:21:37;20.50;99.90
5775;DHT22;2913;51.120;6.772;2023-05-07T15:24:02;20.50;99.90
5775;DHT22;2913;51.120;6.772;2023-05-07T15:26:28;20.60;99.90
5775;DHT22;2913;51.120;6.772;2023-05-07T15:28:54;20.50;99.90
5775;DHT22;2913;51.120;6.772;2023-05-07T15:31:23;20.40;99.90
5775;DHT22;2913;51.120;6.772;2023-05-07T15:33:51;20.30;99.90
5775;DHT22;2913;51.120;6.772;2023-05-07T15:36:22;20.30;99.90
5775;DHT22;2913;51.120;6.772;2023-05-07T15:38:50;20.20;99.90
5775;DHT22;2913;51.120;6.772;2023-05-07T15:41:15;20.50;99.90
5775;DHT22;2913;51.120;6.772;2023-05-07T15:43:49;20.50;99.90
5775;DHT22;2913;51.120;6.772;2023-05-07T15:46:19;20.50;99.90
5775;DHT22;2913;51.120;6.772;2023-05-07T15:48:45;20.40;99.90
5775;DHT22;2913;51.120;6.772;2023-05-07T15:51:13;20.20;99.90
5775;DHT22;2913;51.120;6.772;2023-05-07T15:53:39;20.20;99.90
5775;DHT22;2913;51.120;6.772;2023-05-07T15:56:05;20.30;99.90
5775;DHT22;2913;51.120;6.772;2023-05-07T15:58:31;20.50;99.90
5775;DHT22;2913;51.120;6.772;2023-05-07T16:00:57;20.50;99.90
5775;DHT22;2913;51.120;6.772;2023-05-07T16:03:23;20.30;99.90
5775;DHT22;2913;51.120;6.772;2023-05-07T16:05:51;20.30;99.90
5775;DHT22;2913;51.120;6.772;2023-05-07T16:08:16;20.40;99.90
5775;DHT22;2913;51.120;6.772;2023-05-07T16:10:47;20.40;99.90
5775;DHT22;2913;51.120;6.772;2023-05-07T16:13:15;20.30;99.90
5775;DHT22;2913;51.120;6.772;2023-05-07T16:15:46;20.40;99.90
5775;DHT22;2913;51.120;6.772;2023-05-07T16:18:14;20.50;99.90
5775;DHT22;2913;51.120;6.772;2023-05-07T16:20:41;20.50;99.90
5775;DHT22;2913;51.120;6.772;2023-05-07T16:23:08;20.50;99.90
5775;DHT22;2913;51.120;6.772;2023-05-07T16:25:33;20.50;99.90
5775;DHT22;2913;51.120;6.772;2023-05-07T16:28:01;20.40;99.90
5775;DHT22;2913;51.120;6.772;2023-05-07T16:30:30;20.60;99.90
5775;DHT22;2913;51.120;6.772;2023-05-07T16:32:55;20.70;99.90
5775;DHT22;2913;51.120;6.772;2023-05-07T16:35:23;20.60;99.90
5775;DHT22;2913;51.120;6.772;2023-05-07T16:37:49;20.60;99.90
5775;DHT22;2913;51.120;6.772;2023-05-07T16:40:14;20.50;99.90
5775;DHT22;2913;51.120;6.772;2023-05-07T16:42:40;20.50;99.90
5775;DHT22;2913;51.120;6.772;2023-05-07T16:45:06;20.50;99.90
5775;DHT22;2913;51.120;6.772;2023-05-07T16:47:35;20.50;99.90
5775;DHT22;2913;51.120;6.772;2023-05-07T16:50:03;20.60;99.90
5775;DHT22;2913;51.120;6.772;2023-05-07T16:52:31;20.60;99.90